sensor_id;sensor_type;location;lat;lon;timestamp;P1;durP1;ratioP1;P2;durP2;ratioP2
34765;SDS011;20984;43.508;1.504;2023-07-28T00:01:34;4.03;;;2.67;;
34765;SDS011;20984;43.508;1.504;2023-07-28T00:03:59;2.67;;;1.80;;
34765;SDS011;20984;43.508;1.504;2023-07-28T00:06:26;3.22;;;1.88;;
34765;SDS011;20984;43.508;1.504;2023-07-28T00:08:51;4.38;;;2.08;;
34765;SDS011;20984;43.508;1.504;2023-07-28T00:11:17;2.45;;;1.52;;
34765;SDS011;20984;43.508;1.504;2023-07-28T00:13:43;5.80;;;1.90;;
34765;SDS011;20984;43.508;1.504;2023-07-28T00:16:09;5.18;;;1.52;;
34765;SDS011;20984;43.508;1.504;2023-07-28T00:18:35;3.42;;;2.33;;
34765;SDS011;20984;43.508;1.504;2023-07-28T00:21:01;4.65;;;2.10;;
34765;SDS011;20984;43.508;1.504;2023-07-28T00:23:27;2.72;;;1.90;;
34765;SDS011;20984;43.508;1.504;2023-07-28T00:25:53;2.30;;;1.77;;
34765;SDS011;20984;43.508;1.504;2023-07-28T00:28:19;3.78;;;1.92;;
34765;SDS011;20984;43.508;1.504;2023-07-28T00:30:48;3.28;;;2.05;;
34765;SDS011;20984;43.508;1.504;2023-07-28T00:33:15;3.72;;;1.90;;
34765;SDS011;20984;43.508;1.504;2023-07-28T00:35:40;2.95;;;1.90;;
34765;SDS011;20984;43.508;1.504;2023-07-28T00:38:06;2.55;;;2.15;;
34765;SDS011;20984;43.508;1.504;2023-07-28T00:40:32;3.35;;;1.60;;
34765;SDS011;20984;43.508;1.504;2023-07-28T00:42:57;2.83;;;1.95;;
34765;SDS011;20984;43.508;1.504;2023-07-28T00:45:23;4.68;;;2.25;;
34765;SDS011;20984;43.508;1.504;2023-07-28T00:47:49;2.28;;;1.85;;
34765;SDS011;20984;43.508;1.504;2023-07-28T00:50:15;2.35;;;1.80;;
34765;SDS011;20984;43.508;1.504;2023-07-28T00:52:41;2.92;;;1.90;;
34765;SDS011;20984;43.508;1.504;2023-07-28T00:55:07;3.10;;;2.10;;
34765;SDS011;20984;43.508;1.504;2023-07-28T00:57:33;2.80;;;2.00;;
34765;SDS011;20984;43.508;1.504;2023-07-28T00:59:59;4.72;;;2.33;;
34765;SDS011;20984;43.508;1.504;2023-07-28T01:02:25;3.90;;;2.20;;
34765;SDS011;20984;43.508;1.504;2023-07-28T01:04:51;2.80;;;2.00;;
34765;SDS011;20984;43.508;1.504;2023-07-28T01:07:32;4.32;;;2.10;;
34765;SDS011;20984;43.508;1.504;2023-07-28T01:10:10;3.28;;;1.98;;
34765;SDS011;20984;43.508;1.504;2023-07-28T01:12:39;5.07;;;1.95;;
34765;SDS011;20984;43.508;1.504;2023-07-28T01:15:06;4.15;;;2.40;;
34765;SDS011;20984;43.508;1.504;2023-07-28T01:17:32;3.08;;;2.00;;
34765;SDS011;20984;43.508;1.504;2023-07-28T01:19:57;4.15;;;2.47;;
34765;SDS011;20984;43.508;1.504;2023-07-28T01:25:21;3.33;;;1.98;;
34765;SDS011;20984;43.508;1.504;2023-07-28T01:27:50;4.68;;;3.00;;
34765;SDS011;20984;43.508;1.504;2023-07-28T01:30:18;6.65;;;2.50;;
34765;SDS011;20984;43.508;1.504;2023-07-28T01:32:46;5.78;;;2.55;;
34765;SDS011;20984;43.508;1.504;2023-07-28T01:35:13;5.55;;;2.55;;
34765;SDS011;20984;43.508;1.504;2023-07-28T01:37:38;3.25;;;2.33;;
34765;SDS011;20984;43.508;1.504;2023-07-28T01:40:04;3.45;;;2.50;;
34765;SDS011;20984;43.508;1.504;2023-07-28T01:42:30;3.88;;;2.45;;
34765;SDS011;20984;43.508;1.504;2023-07-28T01:44:56;3.45;;;1.88;;
34765;SDS011;20984;43.508;1.504;2023-07-28T01:47:21;3.65;;;2.28;;
34765;SDS011;20984;43.508;1.504;2023-07-28T01:49:47;4.15;;;2.55;;
34765;SDS011;20984;43.508;1.504;2023-07-28T01:52:13;3.05;;;2.15;;
34765;SDS011;20984;43.508;1.504;2023-07-28T01:54:38;4.35;;;2.53;;
34765;SDS011;20984;43.508;1.504;2023-07-28T01:57:04;3.70;;;2.20;;
34765;SDS011;20984;43.508;1.504;2023-07-28T01:59:30;4.15;;;2.30;;
34765;SDS011;20984;43.508;1.504;2023-07-28T02:01:55;4.50;;;2.70;;
34765;SDS011;20984;43.508;1.504;2023-07-28T02:04:23;5.05;;;2.40;;
34765;SDS011;20984;43.508;1.504;2023-07-28T02:06:48;4.13;;;2.40;;
34765;SDS011;20984;43.508;1.504;2023-07-28T02:09:14;5.75;;;3.15;;
34765;SDS011;20984;43.508;1.504;2023-07-28T02:11:40;4.78;;;2.40;;
34765;SDS011;20984;43.508;1.504;2023-07-28T02:14:05;5.90;;;2.72;;
34765;SDS011;20984;43.508;1.504;2023-07-28T02:16:31;4.63;;;2.30;;
34765;SDS011;20984;43.508;1.504;2023-07-28T02:18:57;4.70;;;2.42;;
34765;SDS011;20984;43.508;1.504;2023-07-28T02:21:22;3.40;;;2.15;;
34765;SDS011;20984;43.508;1.504;2023-07-28T02:23:48;4.50;;;2.50;;
34765;SDS011;20984;43.508;1.504;2023-07-28T02:26:14;6.65;;;2.40;;
34765;SDS011;20984;43.508;1.504;2023-07-28T02:28:40;4.15;;;2.25;;
34765;SDS011;20984;43.508;1.504;2023-07-28T02:31:05;3.58;;;2.55;;
34765;SDS011;20984;43.508;1.504;2023-07-28T02:33:31;4.47;;;2.58;;
34765;SDS011;20984;43.508;1.504;2023-07-28T02:36:00;5.20;;;2.35;;
34765;SDS011;20984;43.508;1.504;2023-07-28T02:38:26;3.45;;;2.08;;
34765;SDS011;20984;43.508;1.504;2023-07-28T02:40:52;3.47;;;2.60;;
34765;SDS011;20984;43.508;1.504;2023-07-28T02:43:18;2.92;;;2.30;;
34765;SDS011;20984;43.508;1.504;2023-07-28T02:45:43;3.85;;;2.58;;
34765;SDS011;20984;43.508;1.504;2023-07-28T02:48:13;4.60;;;2.30;;
34765;SDS011;20984;43.508;1.504;2023-07-28T02:50:39;4.07;;;2.38;;
34765;SDS011;20984;43.508;1.504;2023-07-28T02:53:10;4.85;;;2.50;;
34765;SDS011;20984;43.508;1.504;2023-07-28T02:55:40;3.33;;;2.42;;
34765;SDS011;20984;43.508;1.504;2023-07-28T02:58:09;3.55;;;2.35;;
34765;SDS011;20984;43.508;1.504;2023-07-28T03:00:42;3.35;;;2.10;;
34765;SDS011;20984;43.508;1.504;2023-07-28T03:03:09;4.95;;;2.70;;
34765;SDS011;20984;43.508;1.504;2023-07-28T03:05:35;6.43;;;2.97;;
34765;SDS011;20984;43.508;1.504;2023-07-28T03:08:02;3.70;;;2.67;;
34765;SDS011;20984;43.508;1.504;2023-07-28T03:10:27;3.50;;;2.88;;
34765;SDS011;20984;43.508;1.504;2023-07-28T03:12:54;3.72;;;2.72;;
34765;SDS011;20984;43.508;1.504;2023-07-28T03:15:20;4.15;;;2.95;;
34765;SDS011;20984;43.508;1.504;2023-07-28T03:17:47;7.60;;;3.58;;
34765;SDS011;20984;43.508;1.504;2023-07-28T03:20:13;3.83;;;2.95;;
34765;SDS011;20984;43.508;1.504;2023-07-28T03:22:39;4.63;;;2.70;;
34765;SDS011;20984;43.508;1.504;2023-07-28T03:25:05;6.32;;;3.15;;
34765;SDS011;20984;43.508;1.504;2023-07-28T03:27:30;3.97;;;3.03;;
34765;SDS011;20984;43.508;1.504;2023-07-28T03:29:56;6.50;;;2.70;;
34765;SDS011;20984;43.508;1.504;2023-07-28T03:32:22;3.95;;;2.50;;
34765;SDS011;20984;43.508;1.504;2023-07-28T03:34:47;4.15;;;3.33;;
34765;SDS011;20984;43.508;1.504;2023-07-28T03:37:13;3.78;;;3.15;;
34765;SDS011;20984;43.508;1.504;2023-07-28T03:39:39;4.18;;;3.10;;
34765;SDS011;20984;43.508;1.504;2023-07-28T03:42:04;7.82;;;3.70;;
34765;SDS011;20984;43.508;1.504;2023-07-28T03:44:30;4.38;;;3.17;;
34765;SDS011;20984;43.508;1.504;2023-07-28T03:46:56;4.18;;;3.00;;
34765;SDS011;20984;43.508;1.504;2023-07-28T03:49:21;5.13;;;3.17;;
34765;SDS011;20984;43.508;1.504;2023-07-28T03:51:47;9.23;;;3.28;;
34765;SDS011;20984;43.508;1.504;2023-07-28T03:54:13;6.82;;;3.30;;
34765;SDS011;20984;43.508;1.504;2023-07-28T03:56:38;5.05;;;3.50;;
34765;SDS011;20984;43.508;1.504;2023-07-28T03:59:04;9.45;;;3.70;;
34765;SDS011;20984;43.508;1.504;2023-07-28T04:01:30;5.50;;;3.50;;
34765;SDS011;20984;43.508;1.504;2023-07-28T04:03:56;8.05;;;3.70;;
34765;SDS011;20984;43.508;1.504;2023-07-28T04:06:38;4.25;;;3.15;;
34765;SDS011;20984;43.508;1.504;2023-07-28T04:09:09;5.55;;;4.38;;
34765;SDS011;20984;43.508;1.504;2023-07-28T04:11:36;5.20;;;3.83;;
34765;SDS011;20984;43.508;1.504;2023-07-28T04:14:02;4.45;;;3.35;;
34765;SDS011;20984;43.508;1.504;2023-07-28T04:16:29;4.75;;;3.60;;
34765;SDS011;20984;43.508;1.504;2023-07-28T04:18:54;5.53;;;3.72;;
34765;SDS011;20984;43.508;1.504;2023-07-28T04:21:20;4.53;;;3.38;;
34765;SDS011;20984;43.508;1.504;2023-07-28T04:23:46;7.07;;;4.18;;
34765;SDS011;20984;43.508;1.504;2023-07-28T04:26:12;7.63;;;3.50;;
34765;SDS011;20984;43.508;1.504;2023-07-28T04:28:37;6.80;;;3.70;;
34765;SDS011;20984;43.508;1.504;2023-07-28T04:31:03;5.57;;;4.13;;
34765;SDS011;20984;43.508;1.504;2023-07-28T04:33:29;7.13;;;4.05;;
34765;SDS011;20984;43.508;1.504;2023-07-28T04:35:54;5.65;;;3.88;;
34765;SDS011;20984;43.508;1.504;2023-07-28T04:38:20;8.38;;;3.92;;
34765;SDS011;20984;43.508;1.504;2023-07-28T04:40:45;6.40;;;3.53;;
34765;SDS011;20984;43.508;1.504;2023-07-28T04:43:11;6.95;;;3.92;;
34765;SDS011;20984;43.508;1.504;2023-07-28T04:45:37;8.30;;;4.00;;
34765;SDS011;20984;43.508;1.504;2023-07-28T04:48:02;6.70;;;4.18;;
34765;SDS011;20984;43.508;1.504;2023-07-28T04:50:28;10.60;;;4.20;;
34765;SDS011;20984;43.508;1.504;2023-07-28T04:52:54;5.15;;;3.67;;
34765;SDS011;20984;43.508;1.504;2023-07-28T04:55:20;7.60;;;3.83;;
34765;SDS011;20984;43.508;1.504;2023-07-28T04:57:46;6.25;;;4.15;;
34765;SDS011;20984;43.508;1.504;2023-07-28T05:00:11;4.88;;;3.60;;
34765;SDS011;20984;43.508;1.504;2023-07-28T05:02:37;5.05;;;3.30;;
34765;SDS011;20984;43.508;1.504;2023-07-28T05:05:03;6.65;;;4.10;;
34765;SDS011;20984;43.508;1.504;2023-07-28T05:07:29;8.75;;;3.83;;
34765;SDS011;20984;43.508;1.504;2023-07-28T05:09:55;5.65;;;3.97;;
34765;SDS011;20984;43.508;1.504;2023-07-28T05:12:20;7.70;;;3.63;;
34765;SDS011;20984;43.508;1.504;2023-07-28T05:14:46;5.43;;;4.25;;
34765;SDS011;20984;43.508;1.504;2023-07-28T05:17:12;6.30;;;3.70;;
34765;SDS011;20984;43.508;1.504;2023-07-28T05:19:37;6.38;;;3.47;;
34765;SDS011;20984;43.508;1.504;2023-07-28T05:22:03;5.70;;;3.60;;
34765;SDS011;20984;43.508;1.504;2023-07-28T05:24:31;4.93;;;3.90;;
34765;SDS011;20984;43.508;1.504;2023-07-28T05:26:58;4.43;;;3.45;;
34765;SDS011;20984;43.508;1.504;2023-07-28T05:29:23;5.68;;;3.33;;
34765;SDS011;20984;43.508;1.504;2023-07-28T05:31:49;8.65;;;3.78;;
34765;SDS011;20984;43.508;1.504;2023-07-28T05:34:15;5.88;;;3.55;;
34765;SDS011;20984;43.508;1.504;2023-07-28T05:36:40;7.25;;;4.10;;
34765;SDS011;20984;43.508;1.504;2023-07-28T05:39:09;7.82;;;3.83;;
34765;SDS011;20984;43.508;1.504;2023-07-28T05:41:34;4.03;;;3.30;;
34765;SDS011;20984;43.508;1.504;2023-07-28T05:44:01;6.80;;;3.80;;
34765;SDS011;20984;43.508;1.504;2023-07-28T05:46:27;4.35;;;2.90;;
34765;SDS011;20984;43.508;1.504;2023-07-28T05:48:54;5.82;;;3.58;;
34765;SDS011;20984;43.508;1.504;2023-07-28T05:51:20;4.03;;;3.10;;
34765;SDS011;20984;43.508;1.504;2023-07-28T05:53:46;4.85;;;3.30;;
34765;SDS011;20984;43.508;1.504;2023-07-28T05:56:12;3.75;;;3.10;;
34765;SDS011;20984;43.508;1.504;2023-07-28T05:58:38;5.40;;;3.65;;
34765;SDS011;20984;43.508;1.504;2023-07-28T06:01:04;7.15;;;3.80;;
34765;SDS011;20984;43.508;1.504;2023-07-28T06:03:29;4.45;;;3.42;;
34765;SDS011;20984;43.508;1.504;2023-07-28T06:05:56;5.32;;;3.00;;
34765;SDS011;20984;43.508;1.504;2023-07-28T06:08:22;4.95;;;3.72;;
34765;SDS011;20984;43.508;1.504;2023-07-28T06:10:48;4.60;;;3.20;;
34765;SDS011;20984;43.508;1.504;2023-07-28T06:13:13;7.88;;;3.42;;
34765;SDS011;20984;43.508;1.504;2023-07-28T06:15:39;4.95;;;3.40;;
34765;SDS011;20984;43.508;1.504;2023-07-28T06:18:07;3.88;;;2.95;;
34765;SDS011;20984;43.508;1.504;2023-07-28T06:20:33;4.47;;;3.85;;
34765;SDS011;20984;43.508;1.504;2023-07-28T06:22:59;4.72;;;2.72;;
34765;SDS011;20984;43.508;1.504;2023-07-28T06:25:25;5.05;;;3.22;;
34765;SDS011;20984;43.508;1.504;2023-07-28T06:27:51;4.35;;;3.20;;
34765;SDS011;20984;43.508;1.504;2023-07-28T06:30:17;5.18;;;2.60;;
34765;SDS011;20984;43.508;1.504;2023-07-28T06:32:43;3.38;;;2.50;;
34765;SDS011;20984;43.508;1.504;2023-07-28T06:35:08;5.25;;;2.90;;
34765;SDS011;20984;43.508;1.504;2023-07-28T06:37:35;6.43;;;2.67;;
34765;SDS011;20984;43.508;1.504;2023-07-28T06:40:06;4.40;;;2.50;;
34765;SDS011;20984;43.508;1.504;2023-07-28T06:42:34;5.72;;;2.60;;
34765;SDS011;20984;43.508;1.504;2023-07-28T06:45:01;5.93;;;3.17;;
34765;SDS011;20984;43.508;1.504;2023-07-28T06:47:30;4.88;;;2.60;;
34765;SDS011;20984;43.508;1.504;2023-07-28T06:49:56;6.88;;;2.60;;
34765;SDS011;20984;43.508;1.504;2023-07-28T06:52:21;4.25;;;2.30;;
34765;SDS011;20984;43.508;1.504;2023-07-28T06:54:47;4.70;;;2.60;;
34765;SDS011;20984;43.508;1.504;2023-07-28T06:57:14;4.25;;;2.45;;
34765;SDS011;20984;43.508;1.504;2023-07-28T06:59:40;5.43;;;2.70;;
34765;SDS011;20984;43.508;1.504;2023-07-28T07:02:06;3.65;;;2.35;;
34765;SDS011;20984;43.508;1.504;2023-07-28T07:04:32;3.03;;;2.20;;
34765;SDS011;20984;43.508;1.504;2023-07-28T07:06:58;5.22;;;2.72;;
34765;SDS011;20984;43.508;1.504;2023-07-28T07:09:23;5.30;;;3.40;;
34765;SDS011;20984;43.508;1.504;2023-07-28T07:11:49;4.53;;;2.67;;
34765;SDS011;20984;43.508;1.504;2023-07-28T07:14:15;4.18;;;2.70;;
34765;SDS011;20984;43.508;1.504;2023-07-28T07:16:41;5.43;;;2.67;;
34765;SDS011;20984;43.508;1.504;2023-07-28T07:19:07;6.88;;;2.60;;
34765;SDS011;20984;43.508;1.504;2023-07-28T07:21:34;5.63;;;3.00;;
34765;SDS011;20984;43.508;1.504;2023-07-28T07:23:59;5.93;;;3.15;;
34765;SDS011;20984;43.508;1.504;2023-07-28T07:26:25;6.70;;;3.22;;
34765;SDS011;20984;43.508;1.504;2023-07-28T07:28:52;4.00;;;2.95;;
34765;SDS011;20984;43.508;1.504;2023-07-28T07:31:18;6.70;;;3.38;;
34765;SDS011;20984;43.508;1.504;2023-07-28T07:33:44;6.50;;;2.70;;
34765;SDS011;20984;43.508;1.504;2023-07-28T07:36:17;7.43;;;3.33;;
34765;SDS011;20984;43.508;1.504;2023-07-28T07:38:44;6.07;;;2.75;;
34765;SDS011;20984;43.508;1.504;2023-07-28T07:41:14;4.63;;;3.13;;
34765;SDS011;20984;43.508;1.504;2023-07-28T07:43:46;8.68;;;3.42;;
34765;SDS011;20984;43.508;1.504;2023-07-28T07:46:13;6.20;;;2.90;;
34765;SDS011;20984;43.508;1.504;2023-07-28T07:48:40;5.13;;;3.05;;
34765;SDS011;20984;43.508;1.504;2023-07-28T07:51:06;3.80;;;3.03;;
34765;SDS011;20984;43.508;1.504;2023-07-28T07:53:32;3.78;;;2.63;;
34765;SDS011;20984;43.508;1.504;2023-07-28T07:55:58;6.82;;;2.90;;
34765;SDS011;20984;43.508;1.504;2023-07-28T07:58:23;4.93;;;2.75;;
34765;SDS011;20984;43.508;1.504;2023-07-28T08:00:49;3.28;;;2.40;;
34765;SDS011;20984;43.508;1.504;2023-07-28T08:03:15;6.93;;;3.15;;
34765;SDS011;20984;43.508;1.504;2023-07-28T08:05:40;5.80;;;2.60;;
34765;SDS011;20984;43.508;1.504;2023-07-28T08:08:06;4.70;;;3.10;;
34765;SDS011;20984;43.508;1.504;2023-07-28T08:10:33;4.90;;;2.65;;
34765;SDS011;20984;43.508;1.504;2023-07-28T08:12:59;5.90;;;2.90;;
34765;SDS011;20984;43.508;1.504;2023-07-28T08:15:25;3.63;;;2.60;;
34765;SDS011;20984;43.508;1.504;2023-07-28T08:17:51;4.63;;;2.40;;
34765;SDS011;20984;43.508;1.504;2023-07-28T08:20:17;6.22;;;2.78;;
34765;SDS011;20984;43.508;1.504;2023-07-28T08:22:43;5.13;;;2.70;;
34765;SDS011;20984;43.508;1.504;2023-07-28T08:25:09;4.13;;;2.42;;
34765;SDS011;20984;43.508;1.504;2023-07-28T08:27:34;4.18;;;2.25;;
34765;SDS011;20984;43.508;1.504;2023-07-28T08:30:00;6.32;;;2.50;;
34765;SDS011;20984;43.508;1.504;2023-07-28T08:32:26;3.85;;;2.50;;
34765;SDS011;20984;43.508;1.504;2023-07-28T08:34:53;3.90;;;2.67;;
34765;SDS011;20984;43.508;1.504;2023-07-28T08:37:19;6.95;;;2.75;;
34765;SDS011;20984;43.508;1.504;2023-07-28T08:39:44;4.30;;;2.40;;
34765;SDS011;20984;43.508;1.504;2023-07-28T08:42:10;3.83;;;2.45;;
34765;SDS011;20984;43.508;1.504;2023-07-28T08:44:36;7.45;;;2.63;;
34765;SDS011;20984;43.508;1.504;2023-07-28T08:47:02;5.45;;;2.53;;
34765;SDS011;20984;43.508;1.504;2023-07-28T08:49:31;4.18;;;2.67;;
34765;SDS011;20984;43.508;1.504;2023-07-28T08:51:59;4.85;;;2.42;;
34765;SDS011;20984;43.508;1.504;2023-07-28T08:54:26;7.22;;;3.08;;
34765;SDS011;20984;43.508;1.504;2023-07-28T08:56:52;6.15;;;2.35;;
34765;SDS011;20984;43.508;1.504;2023-07-28T08:59:24;7.28;;;2.92;;
34765;SDS011;20984;43.508;1.504;2023-07-28T09:01:56;7.00;;;2.53;;
34765;SDS011;20984;43.508;1.504;2023-07-28T09:04:25;3.67;;;2.70;;
34765;SDS011;20984;43.508;1.504;2023-07-28T09:06:51;3.10;;;2.20;;
34765;SDS011;20984;43.508;1.504;2023-07-28T09:09:20;4.88;;;2.60;;
34765;SDS011;20984;43.508;1.504;2023-07-28T09:11:47;6.43;;;2.53;;
34765;SDS011;20984;43.508;1.504;2023-07-28T09:14:18;3.22;;;2.13;;
34765;SDS011;20984;43.508;1.504;2023-07-28T09:16:45;5.00;;;2.75;;
34765;SDS011;20984;43.508;1.504;2023-07-28T09:19:11;5.25;;;2.25;;
34765;SDS011;20984;43.508;1.504;2023-07-28T09:21:38;3.60;;;2.20;;
34765;SDS011;20984;43.508;1.504;2023-07-28T09:24:14;5.13;;;2.50;;
34765;SDS011;20984;43.508;1.504;2023-07-28T09:26:46;3.50;;;2.13;;
34765;SDS011;20984;43.508;1.504;2023-07-28T09:29:14;4.03;;;2.17;;
34765;SDS011;20984;43.508;1.504;2023-07-28T09:31:42;3.78;;;2.80;;
34765;SDS011;20984;43.508;1.504;2023-07-28T09:34:08;4.07;;;1.88;;
34765;SDS011;20984;43.508;1.504;2023-07-28T09:36:35;6.63;;;2.60;;
34765;SDS011;20984;43.508;1.504;2023-07-28T09:39:03;3.13;;;2.13;;
34765;SDS011;20984;43.508;1.504;2023-07-28T09:41:32;4.32;;;2.90;;
34765;SDS011;20984;43.508;1.504;2023-07-28T09:44:00;5.28;;;2.70;;
34765;SDS011;20984;43.508;1.504;2023-07-28T09:46:26;3.55;;;2.20;;
34765;SDS011;20984;43.508;1.504;2023-07-28T09:48:55;4.85;;;2.30;;
34765;SDS011;20984;43.508;1.504;2023-07-28T09:51:25;4.10;;;2.22;;
34765;SDS011;20984;43.508;1.504;2023-07-28T09:53:59;4.63;;;2.20;;
34765;SDS011;20984;43.508;1.504;2023-07-28T09:56:28;4.13;;;2.28;;
34765;SDS011;20984;43.508;1.504;2023-07-28T09:58:54;5.05;;;2.38;;
34765;SDS011;20984;43.508;1.504;2023-07-28T10:01:22;5.40;;;2.40;;
34765;SDS011;20984;43.508;1.504;2023-07-28T10:03:48;4.53;;;2.88;;
34765;SDS011;20984;43.508;1.504;2023-07-28T10:06:14;7.35;;;2.63;;
34765;SDS011;20984;43.508;1.504;2023-07-28T10:08:42;3.88;;;3.10;;
34765;SDS011;20984;43.508;1.504;2023-07-28T10:11:09;5.78;;;3.00;;
34765;SDS011;20984;43.508;1.504;2023-07-28T10:13:40;5.47;;;2.20;;
34765;SDS011;20984;43.508;1.504;2023-07-28T10:16:07;6.43;;;2.50;;
34765;SDS011;20984;43.508;1.504;2023-07-28T10:18:39;4.55;;;2.60;;
34765;SDS011;20984;43.508;1.504;2023-07-28T10:21:09;5.22;;;2.20;;
34765;SDS011;20984;43.508;1.504;2023-07-28T10:23:40;6.70;;;2.20;;
34765;SDS011;20984;43.508;1.504;2023-07-28T10:26:06;3.08;;;1.88;;
34765;SDS011;20984;43.508;1.504;2023-07-28T10:28:35;3.53;;;2.22;;
34765;SDS011;20984;43.508;1.504;2023-07-28T10:31:08;6.00;;;2.38;;
34765;SDS011;20984;43.508;1.504;2023-07-28T10:33:38;4.05;;;2.25;;
34765;SDS011;20984;43.508;1.504;2023-07-28T10:36:12;10.35;;;3.17;;
34765;SDS011;20984;43.508;1.504;2023-07-28T10:38:38;6.47;;;2.53;;
34765;SDS011;20984;43.508;1.504;2023-07-28T10:41:08;3.97;;;2.78;;
34765;SDS011;20984;43.508;1.504;2023-07-28T10:43:39;6.10;;;2.38;;
34765;SDS011;20984;43.508;1.504;2023-07-28T10:46:07;6.18;;;2.58;;
34765;SDS011;20984;43.508;1.504;2023-07-28T10:48:34;3.03;;;2.22;;
34765;SDS011;20984;43.508;1.504;2023-07-28T10:51:08;5.22;;;2.25;;
34765;SDS011;20984;43.508;1.504;2023-07-28T10:53:34;6.75;;;2.10;;
34765;SDS011;20984;43.508;1.504;2023-07-28T10:56:02;3.25;;;2.50;;
34765;SDS011;20984;43.508;1.504;2023-07-28T10:58:29;7.55;;;2.40;;
34765;SDS011;20984;43.508;1.504;2023-07-28T11:00:56;5.90;;;2.47;;
34765;SDS011;20984;43.508;1.504;2023-07-28T11:03:22;4.47;;;2.70;;
34765;SDS011;20984;43.508;1.504;2023-07-28T11:05:48;3.35;;;2.13;;
34765;SDS011;20984;43.508;1.504;2023-07-28T11:08:15;4.72;;;2.33;;
34765;SDS011;20984;43.508;1.504;2023-07-28T11:10:41;4.43;;;2.35;;
34765;SDS011;20984;43.508;1.504;2023-07-28T11:13:07;7.43;;;2.67;;
34765;SDS011;20984;43.508;1.504;2023-07-28T11:15:33;3.80;;;2.80;;
34765;SDS011;20984;43.508;1.504;2023-07-28T11:17:58;4.47;;;2.25;;
34765;SDS011;20984;43.508;1.504;2023-07-28T11:20:25;3.13;;;2.40;;
34765;SDS011;20984;43.508;1.504;2023-07-28T11:22:54;3.38;;;2.17;;
34765;SDS011;20984;43.508;1.504;2023-07-28T11:25:25;4.88;;;2.22;;
34765;SDS011;20984;43.508;1.504;2023-07-28T11:27:52;5.70;;;2.35;;
34765;SDS011;20984;43.508;1.504;2023-07-28T11:30:20;3.80;;;2.45;;
34765;SDS011;20984;43.508;1.504;2023-07-28T11:32:47;2.95;;;2.30;;
34765;SDS011;20984;43.508;1.504;2023-07-28T11:35:15;4.55;;;2.30;;
34765;SDS011;20984;43.508;1.504;2023-07-28T11:37:45;4.72;;;2.90;;
34765;SDS011;20984;43.508;1.504;2023-07-28T11:40:13;10.05;;;3.03;;
34765;SDS011;20984;43.508;1.504;2023-07-28T11:42:43;4.85;;;2.58;;
34765;SDS011;20984;43.508;1.504;2023-07-28T11:45:10;4.80;;;2.85;;
34765;SDS011;20984;43.508;1.504;2023-07-28T11:47:37;4.82;;;2.53;;
34765;SDS011;20984;43.508;1.504;2023-07-28T11:50:03;8.52;;;2.83;;
34765;SDS011;20984;43.508;1.504;2023-07-28T11:52:36;5.70;;;2.80;;
34765;SDS011;20984;43.508;1.504;2023-07-28T11:55:05;3.58;;;2.88;;
34765;SDS011;20984;43.508;1.504;2023-07-28T11:57:31;3.53;;;2.47;;
34765;SDS011;20984;43.508;1.504;2023-07-28T11:59:57;5.10;;;3.03;;
34765;SDS011;20984;43.508;1.504;2023-07-28T12:02:24;3.60;;;2.78;;
34765;SDS011;20984;43.508;1.504;2023-07-28T12:04:53;5.10;;;2.93;;
34765;SDS011;20984;43.508;1.504;2023-07-28T12:07:30;4.03;;;2.40;;
34765;SDS011;20984;43.508;1.504;2023-07-28T12:09:57;4.80;;;2.53;;
34765;SDS011;20984;43.508;1.504;2023-07-28T12:12:44;6.53;;;3.00;;
34765;SDS011;20984;43.508;1.504;2023-07-28T12:20:44;4.65;;;3.40;;
34765;SDS011;20984;43.508;1.504;2023-07-28T12:23:19;5.35;;;2.53;;
34765;SDS011;20984;43.508;1.504;2023-07-28T12:25:45;3.10;;;2.05;;
34765;SDS011;20984;43.508;1.504;2023-07-28T12:28:12;2.97;;;2.00;;
34765;SDS011;20984;43.508;1.504;2023-07-28T12:30:37;4.63;;;2.40;;
34765;SDS011;20984;43.508;1.504;2023-07-28T12:33:04;4.95;;;2.30;;
34765;SDS011;20984;43.508;1.504;2023-07-28T12:35:31;3.92;;;2.55;;
34765;SDS011;20984;43.508;1.504;2023-07-28T12:37:59;4.50;;;2.40;;
34765;SDS011;20984;43.508;1.504;2023-07-28T12:40:26;3.45;;;2.35;;
34765;SDS011;20984;43.508;1.504;2023-07-28T12:42:54;3.67;;;2.72;;
34765;SDS011;20984;43.508;1.504;2023-07-28T12:45:20;5.53;;;2.60;;
34765;SDS011;20984;43.508;1.504;2023-07-28T12:47:46;3.30;;;2.53;;
34765;SDS011;20984;43.508;1.504;2023-07-28T12:50:12;5.38;;;2.70;;
34765;SDS011;20984;43.508;1.504;2023-07-28T12:52:38;3.85;;;2.28;;
34765;SDS011;20984;43.508;1.504;2023-07-28T12:55:03;5.40;;;2.47;;
34765;SDS011;20984;43.508;1.504;2023-07-28T12:57:30;4.60;;;3.05;;
34765;SDS011;20984;43.508;1.504;2023-07-28T12:59:56;5.57;;;2.35;;
34765;SDS011;20984;43.508;1.504;2023-07-28T13:02:22;4.60;;;2.53;;
34765;SDS011;20984;43.508;1.504;2023-07-28T13:04:48;4.32;;;2.25;;
34765;SDS011;20984;43.508;1.504;2023-07-28T13:07:13;2.97;;;1.90;;
34765;SDS011;20984;43.508;1.504;2023-07-28T13:09:39;5.75;;;2.45;;
34765;SDS011;20984;43.508;1.504;2023-07-28T13:12:07;5.40;;;2.83;;
34765;SDS011;20984;43.508;1.504;2023-07-28T13:14:33;4.63;;;2.40;;
34765;SDS011;20984;43.508;1.504;2023-07-28T13:16:59;3.50;;;2.53;;
34765;SDS011;20984;43.508;1.504;2023-07-28T13:19:24;3.58;;;2.47;;
34765;SDS011;20984;43.508;1.504;2023-07-28T13:21:50;3.78;;;2.53;;
34765;SDS011;20984;43.508;1.504;2023-07-28T13:24:16;4.38;;;2.00;;
34765;SDS011;20984;43.508;1.504;2023-07-28T13:26:41;4.47;;;2.40;;
34765;SDS011;20984;43.508;1.504;2023-07-28T13:29:07;3.72;;;2.15;;
34765;SDS011;20984;43.508;1.504;2023-07-28T13:31:34;3.42;;;2.58;;
34765;SDS011;20984;43.508;1.504;2023-07-28T13:34:00;3.10;;;2.40;;
34765;SDS011;20984;43.508;1.504;2023-07-28T13:36:25;3.53;;;2.40;;
34765;SDS011;20984;43.508;1.504;2023-07-28T13:38:51;3.72;;;2.42;;
34765;SDS011;20984;43.508;1.504;2023-07-28T13:41:17;6.60;;;3.03;;
34765;SDS011;20984;43.508;1.504;2023-07-28T13:43:42;3.85;;;2.33;;
34765;SDS011;20984;43.508;1.504;2023-07-28T13:46:08;5.38;;;2.38;;
34765;SDS011;20984;43.508;1.504;2023-07-28T13:48:34;10.02;;;2.95;;
34765;SDS011;20984;43.508;1.504;2023-07-28T13:51:04;4.68;;;2.97;;
34765;SDS011;20984;43.508;1.504;2023-07-28T13:53:30;4.13;;;2.30;;
34765;SDS011;20984;43.508;1.504;2023-07-28T13:55:55;6.30;;;2.45;;
34765;SDS011;20984;43.508;1.504;2023-07-28T13:58:21;6.15;;;2.50;;
34765;SDS011;20984;43.508;1.504;2023-07-28T14:00:47;3.92;;;2.17;;
34765;SDS011;20984;43.508;1.504;2023-07-28T14:03:12;3.53;;;2.47;;
34765;SDS011;20984;43.508;1.504;2023-07-28T14:05:39;5.10;;;2.50;;
34765;SDS011;20984;43.508;1.504;2023-07-28T14:08:05;4.65;;;2.88;;
34765;SDS011;20984;43.508;1.504;2023-07-28T14:10:30;3.10;;;2.50;;
34765;SDS011;20984;43.508;1.504;2023-07-28T14:12:57;3.75;;;2.60;;
34765;SDS011;20984;43.508;1.504;2023-07-28T14:15:23;5.22;;;2.22;;
34765;SDS011;20984;43.508;1.504;2023-07-28T14:17:49;4.80;;;2.30;;
34765;SDS011;20984;43.508;1.504;2023-07-28T14:20:15;6.32;;;2.53;;
34765;SDS011;20984;43.508;1.504;2023-07-28T14:22:40;5.18;;;2.22;;
34765;SDS011;20984;43.508;1.504;2023-07-28T14:25:06;4.65;;;2.55;;
34765;SDS011;20984;43.508;1.504;2023-07-28T14:27:32;7.07;;;2.50;;
34765;SDS011;20984;43.508;1.504;2023-07-28T14:29:58;7.18;;;2.63;;
34765;SDS011;20984;43.508;1.504;2023-07-28T14:32:23;3.72;;;2.45;;
34765;SDS011;20984;43.508;1.504;2023-07-28T14:34:49;7.90;;;5.57;;
34765;SDS011;20984;43.508;1.504;2023-07-28T14:37:14;10.00;;;5.53;;
34765;SDS011;20984;43.508;1.504;2023-07-28T14:39:40;9.23;;;4.50;;
34765;SDS011;20984;43.508;1.504;2023-07-28T14:42:06;41.47;;;23.88;;
34765;SDS011;20984;43.508;1.504;2023-07-28T14:44:31;60.72;;;33.15;;
34765;SDS011;20984;43.508;1.504;2023-07-28T14:46:57;10.70;;;5.70;;
34765;SDS011;20984;43.508;1.504;2023-07-28T14:49:23;8.30;;;5.35;;
34765;SDS011;20984;43.508;1.504;2023-07-28T14:51:52;15.20;;;7.50;;
34765;SDS011;20984;43.508;1.504;2023-07-28T14:54:18;38.00;;;21.95;;